Time;durP1;ratioP1;P1;durP2;ratioP2;P2;SDS_P1;SDS_P2;PMS_P1;PMS_P2;Temp;Humidity;BMP_temperature;BMP_pressure;BME280_temperature;BME280_humidity;BME280_pressure;Samples;Min_cycle;Max_cycle;Signal;HPM_P1;HPM_P2
2022/01/19 00:00:55;;;;;;;;;;;5.80;94.30;;;;;;5081700;28;19936;-78
2022/01/19 00:03:21;;;;;;;;;;;5.80;94.30;;;;;;5087940;28;19934;-78
2022/01/19 00:05:49;;;;;;;;;;;5.80;94.30;;;;;;5085551;28;20008;-78
2022/01/19 00:08:19;;;;;;;;;;;5.80;94.30;;;;;;5087163;28;19932;-79
2022/01/19 00:10:46;;;;;;;;;;;5.80;94.30;;;;;;5082179;28;19928;-78
2022/01/19 00:13:14;;;;;;;;;;;5.80;94.30;;;;;;5089092;28;19935;-78
2022/01/19 00:15:40;;;;;;;;;;;5.80;94.40;;;;;;5084569;28;19928;-78
2022/01/19 00:18:07;;;;;;;;;;;5.80;94.40;;;;;;5086842;28;20169;-78
2022/01/19 00:20:35;;;;;;;;;;;5.80;94.40;;;;;;5085830;28;19935;-78
2022/01/19 00:23:03;;;;;;;;;;;5.80;94.40;;;;;;5086064;28;20291;-77
2022/01/19 00:25:31;;;;;;;;;;;5.80;94.40;;;;;;5084766;28;20342;-78
2022/01/19 00:27:57;;;;;;;;;;;5.80;94.40;;;;;;5088121;28;20305;-78
2022/01/19 00:30:26;;;;;;;;;;;5.70;94.40;;;;;;5084796;28;20675;-78
2022/01/19 00:32:53;;;;;;;;;;;5.70;94.40;;;;;;5083246;28;20021;-77
2022/01/19 00:35:19;;;;;;;;;;;5.70;94.40;;;;;;5094414;28;19935;-78
2022/01/19 00:37:46;;;;;;;;;;;5.70;94.40;;;;;;5086712;28;20308;-79
2022/01/19 00:40:14;;;;;;;;;;;5.70;94.50;;;;;;5083705;28;19955;-79
2022/01/19 00:42:42;;;;;;;;;;;5.70;94.50;;;;;;5085529;28;19935;-78
2022/01/19 00:45:09;;;;;;;;;;;5.70;94.50;;;;;;5085506;28;19928;-78
2022/01/19 00:47:37;;;;;;;;;;;5.70;94.50;;;;;;5084822;28;19946;-78
2022/01/19 00:50:04;;;;;;;;;;;5.70;94.60;;;;;;5088361;28;19931;-79
2022/01/19 00:52:31;;;;;;;;;;;5.70;94.60;;;;;;5088604;28;19939;-79
2022/01/19 00:54:57;;;;;;;;;;;5.70;94.60;;;;;;5084216;28;19940;-78
2022/01/19 00:57:24;;;;;;;;;;;5.70;94.70;;;;;;5085584;28;19928;-79
2022/01/19 00:59:52;;;;;;;;;;;5.70;94.70;;;;;;5083265;28;19935;-78
2022/01/19 01:02:19;;;;;;;;;;;5.70;94.70;;;;;;5078798;28;19928;-78
2022/01/19 01:04:46;;;;;;;;;;;5.70;94.70;;;;;;5089037;28;19928;-78
2022/01/19 01:07:13;;;;;;;;;;;5.60;94.70;;;;;;5086707;28;19935;-78
2022/01/19 01:09:40;;;;;;;;;;;5.60;94.80;;;;;;5082816;28;19936;-77
2022/01/19 01:12:12;;;;;;;;;;;5.60;94.80;;;;;;5084786;28;19949;-78
2022/01/19 01:20:10;;;;;;;;;;;5.60;94.90;;;;;;5081498;28;20008;-78
2022/01/19 01:22:37;;;;;;;;;;;5.60;94.90;;;;;;5084441;28;19931;-79
2022/01/19 01:25:04;;;;;;;;;;;5.60;94.90;;;;;;5083913;28;20323;-79
2022/01/19 01:27:30;;;;;;;;;;;5.60;95.00;;;;;;5086237;28;19928;-78
2022/01/19 01:29:57;;;;;;;;;;;5.60;95.00;;;;;;5081898;28;19936;-78
2022/01/19 01:32:24;;;;;;;;;;;5.60;95.00;;;;;;5082115;28;20279;-78
2022/01/19 01:34:50;;;;;;;;;;;5.50;95.00;;;;;;5083855;28;19932;-78
2022/01/19 01:37:19;;;;;;;;;;;5.50;95.10;;;;;;5085175;28;19935;-78
2022/01/19 01:39:45;;;;;;;;;;;5.50;95.10;;;;;;5076675;28;19935;-79
2022/01/19 01:42:13;;;;;;;;;;;5.50;95.10;;;;;;5086378;28;20609;-78
2022/01/19 01:44:42;;;;;;;;;;;5.50;95.10;;;;;;5087805;28;19928;-78
2022/01/19 01:47:09;;;;;;;;;;;5.40;95.10;;;;;;5090066;28;20650;-78
2022/01/19 01:53:16;;;;;;;;;;;5.40;95.10;;;;;;5085644;28;19932;-79
2022/01/19 01:55:17;;;;;;;;;;;5.40;95.20;;;;;;5089094;28;19939;-78
2022/01/19 01:57:44;;;;;;;;;;;5.40;95.20;;;;;;5078707;28;20312;-78
2022/01/19 02:00:12;;;;;;;;;;;5.40;95.20;;;;;;5084319;28;19931;-78
2022/01/19 02:02:39;;;;;;;;;;;5.30;95.20;;;;;;5081784;28;19932;-78
2022/01/19 02:05:09;;;;;;;;;;;5.30;95.20;;;;;;5087997;28;19924;-79
2022/01/19 02:07:44;;;;;;;;;;;5.30;95.20;;;;;;5085840;28;19981;-78
2022/01/19 02:10:30;;;;;;;;;;;5.20;95.20;;;;;;5086054;28;19971;-78
2022/01/19 02:15:56;;;;;;;;;;;5.20;95.20;;;;;;5076688;28;19935;-79
2022/01/19 02:23:54;;;;;;;;;;;5.10;95.20;;;;;;5080137;28;19935;-78
2022/01/19 02:26:27;;;;;;;;;;;5.10;95.30;;;;;;5084366;28;20010;-78
2022/01/19 02:29:10;;;;;;;;;;;5.00;95.30;;;;;;5084809;28;19932;-79
2022/01/19 02:40:13;;;;;;;;;;;4.90;95.30;;;;;;5043500;28;19935;-79
2022/01/19 02:42:52;;;;;;;;;;;4.90;95.30;;;;;;5080979;28;19927;-78
2022/01/19 02:51:07;;;;;;;;;;;4.80;95.30;;;;;;5079627;28;20299;-79
2022/01/19 02:53:35;;;;;;;;;;;4.80;95.30;;;;;;5086843;28;20323;-80
2022/01/19 02:56:07;;;;;;;;;;;4.70;95.30;;;;;;5080057;28;20319;-79
2022/01/19 02:58:38;;;;;;;;;;;4.70;95.30;;;;;;5081640;28;19927;-80
2022/01/19 03:09:15;;;;;;;;;;;4.60;95.30;;;;;;5036651;28;19935;-79
2022/01/19 03:11:42;;;;;;;;;;;4.50;95.30;;;;;;5083373;28;19928;-79
2022/01/19 03:14:08;;;;;;;;;;;4.50;95.30;;;;;;5085389;28;19985;-79
2022/01/19 03:16:35;;;;;;;;;;;4.50;95.30;;;;;;5085467;28;19928;-79
2022/01/19 03:19:02;;;;;;;;;;;4.50;95.30;;;;;;5083663;28;19990;-79
2022/01/19 03:21:28;;;;;;;;;;;4.40;95.30;;;;;;5084712;28;19928;-80
2022/01/19 03:23:55;;;;;;;;;;;4.40;95.30;;;;;;5083631;28;20663;-80
2022/01/19 03:26:23;;;;;;;;;;;4.40;95.40;;;;;;5082979;28;20269;-79
2022/01/19 03:28:49;;;;;;;;;;;4.40;95.40;;;;;;5080108;28;19932;-79
2022/01/19 03:31:16;;;;;;;;;;;4.40;95.40;;;;;;5082389;28;19928;-79
2022/01/19 03:33:44;;;;;;;;;;;4.30;95.40;;;;;;5082351;28;20338;-78
2022/01/19 03:36:10;;;;;;;;;;;4.30;95.40;;;;;;5089221;28;19974;-78
2022/01/19 03:38:37;;;;;;;;;;;4.30;95.40;;;;;;5083699;28;19928;-79
2022/01/19 03:41:03;;;;;;;;;;;4.20;95.40;;;;;;5085036;28;20845;-79
2022/01/19 03:43:31;;;;;;;;;;;4.20;95.40;;;;;;5083453;28;22006;-79
2022/01/19 03:45:58;;;;;;;;;;;4.20;95.40;;;;;;5085718;28;19932;-78
2022/01/19 03:48:39;;;;;;;;;;;4.20;95.40;;;;;;5087321;28;19951;-79
2022/01/19 03:51:05;;;;;;;;;;;4.10;95.40;;;;;;5084710;28;19944;-78
2022/01/19 03:53:32;;;;;;;;;;;4.10;95.50;;;;;;5086980;28;19992;-79
2022/01/19 03:55:59;;;;;;;;;;;4.10;95.50;;;;;;5084960;28;19928;-78
2022/01/19 03:58:25;;;;;;;;;;;4.10;95.50;;;;;;5084113;28;20019;-78
2022/01/19 04:00:55;;;;;;;;;;;4.00;95.50;;;;;;5083209;28;19940;-79
2022/01/19 04:03:26;;;;;;;;;;;4.00;95.50;;;;;;5087734;28;20022;-79
2022/01/19 04:05:59;;;;;;;;;;;4.00;95.50;;;;;;5081986;28;19934;-79
2022/01/19 04:08:26;;;;;;;;;;;3.90;95.50;;;;;;5082433;28;20414;-79
2022/01/19 04:10:53;;;;;;;;;;;3.90;95.50;;;;;;5081626;28;19932;-78
2022/01/19 04:13:32;;;;;;;;;;;3.90;95.50;;;;;;5086609;28;19939;-78
2022/01/19 04:16:00;;;;;;;;;;;3.90;95.50;;;;;;5088172;28;20174;-78
2022/01/19 04:18:27;;;;;;;;;;;3.80;95.60;;;;;;5086270;28;19954;-79
2022/01/19 04:20:54;;;;;;;;;;;3.80;95.50;;;;;;5083369;28;19928;-79
2022/01/19 04:23:21;;;;;;;;;;;3.80;95.60;;;;;;5082721;28;20026;-78
2022/01/19 04:25:48;;;;;;;;;;;3.80;95.60;;;;;;5080924;28;20407;-78
2022/01/19 04:28:15;;;;;;;;;;;3.70;95.60;;;;;;5083574;28;20688;-79
2022/01/19 04:30:42;;;;;;;;;;;3.70;95.60;;;;;;5081726;28;20327;-79
2022/01/19 04:33:12;;;;;;;;;;;3.70;95.60;;;;;;5082933;28;20451;-79
2022/01/19 04:35:49;;;;;;;;;;;3.70;95.60;;;;;;5086732;28;19928;-78
2022/01/19 04:47:13;;;;;;;;;;;3.60;95.70;;;;;;5080435;28;20015;-78
2022/01/19 05:03:23;;;;;;;;;;;3.40;95.70;;;;;;5081931;28;19973;-78
2022/01/19 05:05:57;;;;;;;;;;;3.40;95.70;;;;;;5092479;28;19932;-79
2022/01/19 05:08:42;;;;;;;;;;;3.40;95.80;;;;;;5087773;28;20589;-78
2022/01/19 05:13:53;;;;;;;;;;;3.30;95.80;;;;;;5085217;28;19961;-78
2022/01/19 05:16:20;;;;;;;;;;;3.30;95.80;;;;;;5084162;28;19928;-79
2022/01/19 05:18:47;;;;;;;;;;;3.30;95.80;;;;;;5093179;28;19939;-79
2022/01/19 05:21:14;;;;;;;;;;;3.30;95.80;;;;;;5093593;28;20110;-78
2022/01/19 05:23:41;;;;;;;;;;;3.20;95.80;;;;;;5092195;28;20380;-79
2022/01/19 05:26:08;;;;;;;;;;;3.20;95.80;;;;;;5088298;28;19997;-79
2022/01/19 05:28:34;;;;;;;;;;;3.20;95.80;;;;;;5082565;28;19981;-79
2022/01/19 05:31:01;;;;;;;;;;;3.20;95.80;;;;;;5085519;28;19932;-79
2022/01/19 05:33:27;;;;;;;;;;;3.20;95.80;;;;;;5086108;28;19928;-79
2022/01/19 05:35:54;;;;;;;;;;;3.20;95.80;;;;;;5091863;28;19931;-78
2022/01/19 05:38:22;;;;;;;;;;;3.10;95.80;;;;;;5085972;28;19982;-78
2022/01/19 05:40:48;;;;;;;;;;;3.10;95.80;;;;;;5084893;28;19935;-79
2022/01/19 05:43:15;;;;;;;;;;;3.10;95.80;;;;;;5088892;28;19924;-79
2022/01/19 05:45:41;;;;;;;;;;;3.10;95.80;;;;;;5084189;28;19935;-78
2022/01/19 05:48:08;;;;;;;;;;;3.10;95.80;;;;;;5088725;28;20315;-79
2022/01/19 05:50:35;;;;;;;;;;;3.00;95.80;;;;;;5080468;28;19995;-78
2022/01/19 05:53:01;;;;;;;;;;;3.00;95.80;;;;;;5077878;28;19990;-79
2022/01/19 05:55:29;;;;;;;;;;;3.00;95.80;;;;;;5080493;28;19927;-79
2022/01/19 05:57:56;;;;;;;;;;;3.00;95.80;;;;;;5088195;28;19950;-77
2022/01/19 06:00:22;;;;;;;;;;;2.90;95.80;;;;;;5084285;28;19935;-78
2022/01/19 06:02:49;;;;;;;;;;;2.90;95.80;;;;;;5088650;28;19962;-77
2022/01/19 06:05:16;;;;;;;;;;;2.90;95.80;;;;;;5084560;28;20276;-77
2022/01/19 06:07:45;;;;;;;;;;;2.90;95.80;;;;;;5079782;28;19928;-78
2022/01/19 06:10:42;;;;;;;;;;;2.90;95.80;;;;;;5085379;28;19928;-78
2022/01/19 06:13:00;;;;;;;;;;;2.80;95.80;;;;;;5085138;28;19927;-77
2022/01/19 06:15:27;;;;;;;;;;;2.80;95.80;;;;;;5079169;28;21405;-78
2022/01/19 06:17:54;;;;;;;;;;;2.80;95.80;;;;;;5085025;28;19935;-77
2022/01/19 06:20:20;;;;;;;;;;;2.80;95.80;;;;;;5084668;28;20450;-79
2022/01/19 06:22:47;;;;;;;;;;;2.70;95.80;;;;;;5087936;28;20481;-78
2022/01/19 06:25:13;;;;;;;;;;;2.70;94.90;;;;;;5077801;28;19932;-78
2022/01/19 06:27:40;;;;;;;;;;;2.50;93.40;;;;;;5090077;28;19932;-77
2022/01/19 06:30:08;;;;;;;;;;;2.30;94.00;;;;;;5087977;28;19978;-78
2022/01/19 06:32:35;;;;;;;;;;;2.30;94.40;;;;;;5080356;28;20415;-77
2022/01/19 06:35:01;;;;;;;;;;;2.30;94.70;;;;;;5094590;28;19951;-76
2022/01/19 06:37:28;;;;;;;;;;;2.30;94.90;;;;;;5088885;28;19943;-78
2022/01/19 06:39:54;;;;;;;;;;;2.30;95.10;;;;;;5094328;28;19935;-78
2022/01/19 06:42:21;;;;;;;;;;;2.30;95.20;;;;;;5088098;28;19998;-78
2022/01/19 06:44:47;;;;;;;;;;;2.30;95.20;;;;;;5091277;28;19932;-79
2022/01/19 06:47:15;;;;;;;;;;;2.30;95.30;;;;;;5089086;28;20057;-78
2022/01/19 06:49:42;;;;;;;;;;;2.30;95.40;;;;;;5088276;28;19981;-79
2022/01/19 06:52:08;;;;;;;;;;;2.30;95.40;;;;;;5090848;28;19928;-78
2022/01/19 06:54:35;;;;;;;;;;;2.30;95.40;;;;;;5084309;28;19932;-78
2022/01/19 06:57:02;;;;;;;;;;;2.30;95.40;;;;;;5086853;28;19935;-77
2022/01/19 06:59:28;;;;;;;;;;;2.30;95.50;;;;;;5089911;28;19927;-78
2022/01/19 07:01:55;;;;;;;;;;;2.30;95.50;;;;;;5083812;28;19932;-78
2022/01/19 07:04:23;;;;;;;;;;;2.20;95.50;;;;;;5091491;28;19932;-77
2022/01/19 07:06:49;;;;;;;;;;;2.20;95.50;;;;;;5085207;28;19975;-79
2022/01/19 07:09:16;;;;;;;;;;;2.20;95.50;;;;;;5079687;28;19928;-78
2022/01/19 07:11:42;;;;;;;;;;;2.20;95.60;;;;;;5082687;28;19928;-79
2022/01/19 07:14:12;;;;;;;;;;;2.20;95.60;;;;;;5093446;28;19932;-77
2022/01/19 07:16:39;;;;;;;;;;;2.20;95.60;;;;;;5081952;28;19973;-78
2022/01/19 07:19:05;;;;;;;;;;;2.10;95.60;;;;;;5095465;28;19932;-78
2022/01/19 07:21:33;;;;;;;;;;;2.10;95.60;;;;;;5093823;28;19932;-80
2022/01/19 07:24:00;;;;;;;;;;;2.10;95.60;;;;;;5080479;28;19934;-79
2022/01/19 07:26:26;;;;;;;;;;;2.10;95.60;;;;;;5091134;28;19985;-78
2022/01/19 07:28:53;;;;;;;;;;;2.10;95.60;;;;;;5085740;28;19932;-79
2022/01/19 07:31:19;;;;;;;;;;;2.10;95.70;;;;;;5081415;28;19935;-78
2022/01/19 07:33:46;;;;;;;;;;;2.00;95.70;;;;;;5084973;28;19928;-78
2022/01/19 07:36:12;;;;;;;;;;;2.00;95.70;;;;;;5088697;28;20447;-79
2022/01/19 07:38:40;;;;;;;;;;;2.00;95.70;;;;;;5089982;28;19927;-80
2022/01/19 07:41:07;;;;;;;;;;;2.00;95.70;;;;;;5083241;28;19932;-78
2022/01/19 07:43:34;;;;;;;;;;;2.00;95.70;;;;;;5082738;28;19936;-78
2022/01/19 07:46:00;;;;;;;;;;;2.00;95.80;;;;;;5076237;28;20037;-77
2022/01/19 07:48:27;;;;;;;;;;;2.00;95.80;;;;;;5086182;28;20679;-78
2022/01/19 07:50:53;;;;;;;;;;;2.00;95.80;;;;;;5082767;28;20049;-79
2022/01/19 07:53:20;;;;;;;;;;;1.90;95.80;;;;;;5079241;28;20445;-79
2022/01/19 07:55:49;;;;;;;;;;;2.00;95.80;;;;;;5087523;28;19928;-79
2022/01/19 07:58:16;;;;;;;;;;;1.90;95.80;;;;;;5082658;28;20043;-79
2022/01/19 08:00:43;;;;;;;;;;;1.90;95.90;;;;;;5093489;28;19927;-79
2022/01/19 08:03:09;;;;;;;;;;;1.90;95.90;;;;;;5081896;28;19928;-77
2022/01/19 08:05:36;;;;;;;;;;;1.90;95.90;;;;;;5090111;28;20325;-79
2022/01/19 08:08:03;;;;;;;;;;;1.90;95.90;;;;;;5087800;28;19955;-76
2022/01/19 08:10:30;;;;;;;;;;;1.90;96.00;;;;;;5077650;28;20015;-78
2022/01/19 08:13:01;;;;;;;;;;;1.90;96.30;;;;;;5091905;28;19928;-78
2022/01/19 08:15:28;;;;;;;;;;;1.80;96.00;;;;;;5085858;28;20665;-77
2022/01/19 08:17:54;;;;;;;;;;;1.80;96.00;;;;;;5086136;28;19932;-77
2022/01/19 08:20:21;;;;;;;;;;;1.80;96.00;;;;;;5081854;28;19974;-78
2022/01/19 08:22:48;;;;;;;;;;;1.80;96.00;;;;;;5096957;28;19928;-79
2022/01/19 08:25:14;;;;;;;;;;;1.80;96.00;;;;;;5090051;28;19928;-80
2022/01/19 08:27:41;;;;;;;;;;;1.80;96.00;;;;;;5100785;28;19984;-78
2022/01/19 08:30:11;;;;;;;;;;;1.80;96.10;;;;;;5087934;28;19935;-79
2022/01/19 08:32:37;;;;;;;;;;;1.80;96.10;;;;;;5089605;28;19934;-76
2022/01/19 08:35:05;;;;;;;;;;;1.80;96.10;;;;;;5092717;28;20534;-78
2022/01/19 08:37:32;;;;;;;;;;;1.80;96.10;;;;;;5090613;28;19984;-78
2022/01/19 08:39:58;;;;;;;;;;;1.80;96.10;;;;;;5093736;28;19943;-77
2022/01/19 08:42:25;;;;;;;;;;;1.80;96.10;;;;;;5086149;28;19939;-79
2022/01/19 08:44:52;;;;;;;;;;;1.80;96.20;;;;;;5091517;28;20415;-76
2022/01/19 08:47:20;;;;;;;;;;;1.70;96.10;;;;;;5089392;28;19985;-79
2022/01/19 08:49:47;;;;;;;;;;;1.80;96.20;;;;;;5086381;28;19939;-79
2022/01/19 08:52:15;;;;;;;;;;;1.80;96.20;;;;;;5085044;28;19936;-79
2022/01/19 08:54:42;;;;;;;;;;;1.70;96.20;;;;;;5088836;28;20319;-80
2022/01/19 08:57:08;;;;;;;;;;;1.80;96.20;;;;;;5091214;28;19932;-78
2022/01/19 08:59:36;;;;;;;;;;;1.80;96.20;;;;;;5089205;28;19928;-80
2022/01/19 09:02:03;;;;;;;;;;;1.70;96.20;;;;;;5087096;28;19938;-80
2022/01/19 09:04:30;;;;;;;;;;;1.70;96.20;;;;;;5093853;28;19928;-79
2022/01/19 09:06:58;;;;;;;;;;;1.70;96.20;;;;;;5088115;28;19928;-79
2022/01/19 09:09:25;;;;;;;;;;;1.70;96.30;;;;;;5087715;28;19932;-79
2022/01/19 09:11:51;;;;;;;;;;;1.70;96.30;;;;;;5091242;28;19938;-78
2022/01/19 09:14:18;;;;;;;;;;;1.70;96.30;;;;;;5094724;28;19935;-79
2022/01/19 09:16:49;;;;;;;;;;;1.70;96.30;;;;;;5084686;28;19928;-79
2022/01/19 09:19:16;;;;;;;;;;;1.70;96.30;;;;;;5095533;28;19974;-79
2022/01/19 09:21:44;;;;;;;;;;;1.70;96.30;;;;;;5093453;28;19932;-79
2022/01/19 09:24:10;;;;;;;;;;;1.70;96.30;;;;;;5091317;28;19935;-80
2022/01/19 09:26:37;;;;;;;;;;;1.70;96.30;;;;;;5090790;28;19928;-80
2022/01/19 09:29:04;;;;;;;;;;;1.70;96.30;;;;;;5082865;28;20031;-80
2022/01/19 09:31:31;;;;;;;;;;;1.70;96.30;;;;;;5080622;28;19936;-79
2022/01/19 09:34:07;;;;;;;;;;;1.70;96.30;;;;;;5084406;28;20028;-80
2022/01/19 09:36:43;;;;;;;;;;;1.70;96.30;;;;;;5090933;28;19958;-80
2022/01/19 09:39:12;;;;;;;;;;;1.70;96.30;;;;;;5093813;28;19962;-79
2022/01/19 09:41:40;;;;;;;;;;;1.80;96.30;;;;;;5083487;28;19928;-80
2022/01/19 09:44:07;;;;;;;;;;;1.80;96.30;;;;;;5085727;28;19928;-79
2022/01/19 09:46:34;;;;;;;;;;;1.80;96.30;;;;;;5093679;28;20274;-80
2022/01/19 09:49:00;;;;;;;;;;;1.80;96.30;;;;;;5082916;28;19928;-80
2022/01/19 09:51:28;;;;;;;;;;;1.70;96.30;;;;;;5086899;28;19989;-80
2022/01/19 09:53:55;;;;;;;;;;;1.80;96.30;;;;;;5091902;28;19928;-80
2022/01/19 09:56:23;;;;;;;;;;;1.80;96.20;;;;;;5084366;28;21887;-80
2022/01/19 09:58:50;;;;;;;;;;;1.80;96.20;;;;;;5087379;28;19931;-80
2022/01/19 10:01:18;;;;;;;;;;;1.80;96.20;;;;;;5083904;28;19932;-80
2022/01/19 10:03:44;;;;;;;;;;;1.80;96.20;;;;;;5089083;28;20030;-80
2022/01/19 10:06:12;;;;;;;;;;;1.80;96.20;;;;;;5083838;28;19924;-80
2022/01/19 10:08:39;;;;;;;;;;;1.90;96.20;;;;;;5081936;28;20392;-79
2022/01/19 10:11:09;;;;;;;;;;;1.90;96.10;;;;;;5077165;28;19941;-79
2022/01/19 10:19:13;;;;;;;;;;;2.00;96.10;;;;;;5089364;28;19966;-80
2022/01/19 10:21:55;;;;;;;;;;;2.00;96.00;;;;;;5093881;28;19936;-80
2022/01/19 10:24:32;;;;;;;;;;;2.00;95.90;;;;;;5080242;28;19929;-79
2022/01/19 10:27:17;;;;;;;;;;;2.10;95.90;;;;;;5084598;28;20651;-79
2022/01/19 10:29:45;;;;;;;;;;;2.10;95.80;;;;;;5077321;28;19977;-80
2022/01/19 10:32:13;;;;;;;;;;;2.10;95.70;;;;;;5084792;28;20283;-77
2022/01/19 10:34:40;;;;;;;;;;;2.10;95.70;;;;;;5086872;28;19935;-77
2022/01/19 10:37:06;;;;;;;;;;;2.10;95.60;;;;;;5074224;28;20577;-78
2022/01/19 10:39:40;;;;;;;;;;;2.20;95.70;;;;;;5095892;28;19935;-76
2022/01/19 10:42:08;;;;;;;;;;;2.20;95.60;;;;;;5083471;28;19985;-79
2022/01/19 10:44:35;;;;;;;;;;;2.30;95.60;;;;;;5073173;28;19932;-78
2022/01/19 10:47:04;;;;;;;;;;;2.30;95.50;;;;;;5076596;28;19997;-77
2022/01/19 10:49:46;;;;;;;;;;;2.30;95.40;;;;;;5081529;28;20504;-76
2022/01/19 10:52:24;;;;;;;;;;;2.40;95.40;;;;;;5075404;28;20035;-76
2022/01/19 10:54:51;;;;;;;;;;;2.50;95.20;;;;;;5079216;28;19927;-78
2022/01/19 10:57:18;;;;;;;;;;;2.60;95.10;;;;;;5084778;28;20686;-77
2022/01/19 10:59:47;;;;;;;;;;;2.60;95.00;;;;;;5081172;28;21283;-77
2022/01/19 11:02:15;;;;;;;;;;;2.70;94.80;;;;;;5078262;28;19928;-79
2022/01/19 11:04:42;;;;;;;;;;;2.70;94.70;;;;;;5080639;28;19981;-77
2022/01/19 11:07:11;;;;;;;;;;;2.80;94.60;;;;;;5081786;28;20045;-77
2022/01/19 11:09:45;;;;;;;;;;;2.80;94.50;;;;;;5078794;28;19935;-78
2022/01/19 11:12:14;;;;;;;;;;;2.90;94.50;;;;;;5078724;28;19928;-78
2022/01/19 11:14:41;;;;;;;;;;;2.90;94.40;;;;;;5080664;28;20898;-77
2022/01/19 11:17:08;;;;;;;;;;;2.90;94.40;;;;;;5080188;28;19935;-78
2022/01/19 11:19:38;;;;;;;;;;;2.90;94.40;;;;;;5077749;28;19928;-77
2022/01/19 11:22:14;;;;;;;;;;;2.90;94.40;;;;;;5080466;28;19935;-77
2022/01/19 11:24:59;;;;;;;;;;;2.90;94.40;;;;;;5079217;28;19983;-78
2022/01/19 11:27:28;;;;;;;;;;;2.90;94.40;;;;;;5077613;28;19932;-78
2022/01/19 11:30:08;;;;;;;;;;;2.90;94.40;;;;;;5083759;28;19928;-79
2022/01/19 11:32:35;;;;;;;;;;;2.90;94.40;;;;;;5074631;28;19954;-78
2022/01/19 11:35:03;;;;;;;;;;;3.00;94.40;;;;;;5080365;28;19932;-79
2022/01/19 11:37:34;;;;;;;;;;;2.90;94.40;;;;;;5081390;28;19928;-77
2022/01/19 11:40:02;;;;;;;;;;;3.00;94.40;;;;;;5085561;28;19939;-76
2022/01/19 11:42:29;;;;;;;;;;;3.00;94.40;;;;;;5087256;28;20385;-76
2022/01/19 11:44:55;;;;;;;;;;;3.00;94.40;;;;;;5083313;28;19935;-77
2022/01/19 11:47:24;;;;;;;;;;;3.00;94.40;;;;;;5087328;28;20720;-79
2022/01/19 11:49:52;;;;;;;;;;;3.10;94.50;;;;;;5087177;28;19928;-77
2022/01/19 11:52:20;;;;;;;;;;;3.00;94.50;;;;;;5087468;28;19935;-75
2022/01/19 11:54:48;;;;;;;;;;;3.00;94.60;;;;;;5090585;28;20494;-76
2022/01/19 11:57:15;;;;;;;;;;;3.10;94.60;;;;;;5073993;28;19929;-78
2022/01/19 12:00:00;;;;;;;;;;;3.10;94.60;;;;;;5085153;28;20345;-78
2022/01/19 12:02:36;;;;;;;;;;;3.10;94.60;;;;;;5077810;28;19957;-78
2022/01/19 12:05:13;;;;;;;;;;;3.10;94.60;;;;;;5081408;28;19937;-78
2022/01/19 12:07:42;;;;;;;;;;;3.10;94.60;;;;;;5082775;28;20410;-79
2022/01/19 12:10:11;;;;;;;;;;;3.10;94.60;;;;;;5089891;28;19928;-75
2022/01/19 12:12:44;;;;;;;;;;;3.10;94.60;;;;;;5083569;28;20327;-79
2022/01/19 12:15:25;;;;;;;;;;;3.10;94.60;;;;;;5090684;28;19994;-78
2022/01/19 12:17:56;;;;;;;;;;;3.10;94.70;;;;;;5082437;28;19931;-77
2022/01/19 12:20:49;;;;;;;;;;;3.10;94.70;;;;;;5077974;28;19928;-76
2022/01/19 12:23:27;;;;;;;;;;;3.10;94.70;;;;;;5085992;28;19932;-77
2022/01/19 12:25:54;;;;;;;;;;;3.10;94.70;;;;;;5087330;28;19981;-78
2022/01/19 12:28:35;;;;;;;;;;;3.20;94.70;;;;;;5091620;28;20011;-77
2022/01/19 12:31:17;;;;;;;;;;;3.10;94.70;;;;;;5073665;28;19936;-77
2022/01/19 12:33:58;;;;;;;;;;;3.20;94.80;;;;;;5080269;28;20695;-76
2022/01/19 12:36:41;;;;;;;;;;;3.20;94.80;;;;;;5086194;28;20365;-77
2022/01/19 12:39:22;;;;;;;;;;;3.20;94.80;;;;;;5080583;28;19932;-77
2022/01/19 12:41:59;;;;;;;;;;;3.20;94.90;;;;;;5073527;28;19928;-76
2022/01/19 12:44:39;;;;;;;;;;;3.20;94.90;;;;;;5079227;28;19927;-77
2022/01/19 12:47:26;;;;;;;;;;;3.20;94.90;;;;;;5081923;28;20161;-76
2022/01/19 12:49:53;;;;;;;;;;;3.20;94.90;;;;;;5084862;28;19928;-77
2022/01/19 12:52:20;;;;;;;;;;;3.20;94.90;;;;;;5078677;28;19928;-77
2022/01/19 12:54:47;;;;;;;;;;;3.20;94.90;;;;;;5073176;28;20194;-77
2022/01/19 12:57:16;;;;;;;;;;;3.20;94.90;;;;;;5084251;28;19932;-79
2022/01/19 12:59:43;;;;;;;;;;;3.30;94.90;;;;;;5086056;28;20202;-79
2022/01/19 13:02:12;;;;;;;;;;;3.30;94.90;;;;;;5078535;28;20336;-80
2022/01/19 13:04:39;;;;;;;;;;;3.30;94.90;;;;;;5079654;28;19983;-78
2022/01/19 13:07:16;;;;;;;;;;;3.30;95.00;;;;;;5083841;28;19928;-78
2022/01/19 13:09:58;;;;;;;;;;;3.30;95.00;;;;;;5088478;28;20458;-78
2022/01/19 13:12:33;;;;;;;;;;;3.30;94.90;;;;;;5083667;28;19983;-75
2022/01/19 13:15:00;;;;;;;;;;;3.40;94.90;;;;;;5087295;28;19989;-77
2022/01/19 13:17:39;;;;;;;;;;;3.30;94.90;;;;;;5077270;28;20472;-78
2022/01/19 13:20:10;;;;;;;;;;;3.30;94.90;;;;;;5085785;28;19928;-78
2022/01/19 13:22:46;;;;;;;;;;;3.40;94.90;;;;;;5087037;28;20526;-76
2022/01/19 13:25:17;;;;;;;;;;;3.40;94.90;;;;;;5082696;28;20338;-77
2022/01/19 13:27:45;;;;;;;;;;;3.40;94.90;;;;;;5086078;28;20016;-77
2022/01/19 13:30:12;;;;;;;;;;;3.40;94.90;;;;;;5083231;28;19951;-76
2022/01/19 13:32:39;;;;;;;;;;;3.40;95.00;;;;;;5082956;28;20017;-76
2022/01/19 13:35:07;;;;;;;;;;;3.40;95.00;;;;;;5081717;28;21628;-77
2022/01/19 13:37:34;;;;;;;;;;;3.40;95.00;;;;;;5073233;28;19974;-77
2022/01/19 13:40:01;;;;;;;;;;;3.40;95.00;;;;;;5079448;28;19924;-75
2022/01/19 13:42:37;;;;;;;;;;;3.40;95.00;;;;;;5076108;28;19939;-77
2022/01/19 13:45:10;;;;;;;;;;;3.50;95.00;;;;;;5077963;28;20341;-76
2022/01/19 13:47:56;;;;;;;;;;;3.50;95.00;;;;;;5074150;28;20793;-77
2022/01/19 13:50:23;;;;;;;;;;;3.50;95.00;;;;;;5082898;28;19940;-76
2022/01/19 13:52:50;;;;;;;;;;;3.50;95.00;;;;;;5081255;28;19939;-77
2022/01/19 13:55:18;;;;;;;;;;;3.50;95.10;;;;;;5078485;28;19928;-77
2022/01/19 13:57:44;;;;;;;;;;;3.50;95.00;;;;;;5080977;28;19936;-76
2022/01/19 14:00:14;;;;;;;;;;;3.50;95.00;;;;;;5081799;28;19974;-76
2022/01/19 14:02:40;;;;;;;;;;;3.50;95.00;;;;;;5080281;28;19971;-75
2022/01/19 14:05:07;;;;;;;;;;;3.50;95.00;;;;;;5089387;28;19928;-77
2022/01/19 14:07:34;;;;;;;;;;;3.60;95.10;;;;;;5087397;28;20454;-77
2022/01/19 14:10:07;;;;;;;;;;;3.60;95.10;;;;;;5080702;28;19973;-78
2022/01/19 14:12:33;;;;;;;;;;;3.50;95.10;;;;;;5086170;28;20367;-76
2022/01/19 14:15:02;;;;;;;;;;;3.60;95.10;;;;;;5080878;28;19936;-76
2022/01/19 14:17:31;;;;;;;;;;;3.60;95.10;;;;;;5082747;28;19928;-76
2022/01/19 14:19:59;;;;;;;;;;;3.60;95.10;;;;;;5083658;28;19975;-76
2022/01/19 14:22:28;;;;;;;;;;;3.60;95.10;;;;;;5077085;28;20015;-76
2022/01/19 14:24:57;;;;;;;;;;;3.60;95.20;;;;;;5074943;28;19929;-77
2022/01/19 14:27:40;;;;;;;;;;;3.60;95.20;;;;;;5085361;28;19940;-77
2022/01/19 14:30:09;;;;;;;;;;;3.60;95.10;;;;;;5080703;28;19969;-77
2022/01/19 14:32:39;;;;;;;;;;;3.60;95.20;;;;;;5083863;28;20407;-77
2022/01/19 14:35:19;;;;;;;;;;;3.60;95.20;;;;;;5087210;28;20758;-77
2022/01/19 14:37:56;;;;;;;;;;;3.60;95.10;;;;;;5085313;28;20013;-78
2022/01/19 14:40:23;;;;;;;;;;;3.60;95.10;;;;;;5088993;28;19939;-76
2022/01/19 14:42:50;;;;;;;;;;;3.60;95.20;;;;;;5076455;28;19943;-77
2022/01/19 14:45:22;;;;;;;;;;;3.60;95.20;;;;;;5084740;28;19955;-76
2022/01/19 14:47:51;;;;;;;;;;;3.60;95.20;;;;;;5091570;28;19981;-77
2022/01/19 14:50:19;;;;;;;;;;;3.60;95.20;;;;;;5086287;28;19967;-76
2022/01/19 14:52:49;;;;;;;;;;;3.60;95.10;;;;;;5082580;28;19935;-77
2022/01/19 14:55:16;;;;;;;;;;;3.60;95.20;;;;;;5084943;28;19942;-76
2022/01/19 14:57:42;;;;;;;;;;;3.60;95.20;;;;;;5078519;28;19935;-77
2022/01/19 15:00:10;;;;;;;;;;;3.60;95.10;;;;;;5081005;28;19927;-77
2022/01/19 15:02:37;;;;;;;;;;;3.70;95.10;;;;;;5076682;28;19928;-76
2022/01/19 15:05:05;;;;;;;;;;;3.70;95.10;;;;;;5080403;28;19928;-78
2022/01/19 15:07:32;;;;;;;;;;;3.70;95.20;;;;;;5095626;28;19997;-78
2022/01/19 15:09:58;;;;;;;;;;;3.70;95.20;;;;;;5092569;28;19935;-77
2022/01/19 15:12:25;;;;;;;;;;;3.80;95.20;;;;;;5087853;28;19935;-78
2022/01/19 15:14:51;;;;;;;;;;;3.90;95.20;;;;;;5090145;28;19924;-76
2022/01/19 15:17:18;;;;;;;;;;;3.90;95.20;;;;;;5085908;28;19938;-78
2022/01/19 15:19:44;;;;;;;;;;;4.00;95.30;;;;;;5090238;28;20352;-78
2022/01/19 15:22:12;;;;;;;;;;;4.10;95.20;;;;;;5090962;28;19935;-78
2022/01/19 15:24:39;;;;;;;;;;;4.10;95.10;;;;;;5090235;28;20003;-79
2022/01/19 15:27:05;;;;;;;;;;;4.20;95.10;;;;;;5093859;28;19939;-78
2022/01/19 15:29:32;;;;;;;;;;;4.20;95.00;;;;;;5082116;28;19928;-79
2022/01/19 15:31:59;;;;;;;;;;;4.30;94.90;;;;;;5082939;28;20450;-77
2022/01/19 15:34:25;;;;;;;;;;;4.30;94.80;;;;;;5087793;28;20413;-77
2022/01/19 15:36:52;;;;;;;;;;;4.40;94.70;;;;;;5085620;28;20298;-79
2022/01/19 15:39:20;;;;;;;;;;;4.40;94.60;;;;;;5088649;28;19932;-79
2022/01/19 15:41:46;;;;;;;;;;;4.40;94.60;;;;;;5087062;28;19947;-77
2022/01/19 15:44:13;;;;;;;;;;;4.50;94.60;;;;;;5086380;28;19928;-78
2022/01/19 15:46:39;;;;;;;;;;;4.50;94.50;;;;;;5083617;28;19982;-80
2022/01/19 15:49:07;;;;;;;;;;;4.50;94.40;;;;;;5088066;28;19932;-79
2022/01/19 15:51:33;;;;;;;;;;;4.50;94.40;;;;;;5085534;28;19928;-79